sensor_id;sensor_type;location;lat;lon;timestamp;P1;durP1;ratioP1;P2;durP2;ratioP2
21624;SDS011;10974;51.034;3.744;2022-09-03T00:00:13;7.10;;;3.93;;
21624;SDS011;10974;51.034;3.744;2022-09-03T00:02:49;5.90;;;4.20;;
21624;SDS011;10974;51.034;3.744;2022-09-03T00:13:34;4.40;;;3.80;;
21624;SDS011;10974;51.034;3.744;2022-09-03T00:16:07;4.90;;;4.40;;
21624;SDS011;10974;51.034;3.744;2022-09-03T00:18:42;5.40;;;3.83;;
21624;SDS011;10974;51.034;3.744;2022-09-03T00:21:23;4.50;;;4.10;;
21624;SDS011;10974;51.034;3.744;2022-09-03T00:23:50;4.67;;;3.90;;
21624;SDS011;10974;51.034;3.744;2022-09-03T00:26:27;4.43;;;4.03;;
21624;SDS011;10974;51.034;3.744;2022-09-03T00:29:11;7.17;;;4.30;;
21624;SDS011;10974;51.034;3.744;2022-09-03T00:31:42;6.00;;;4.07;;
21624;SDS011;10974;51.034;3.744;2022-09-03T00:36:47;5.17;;;3.80;;
21624;SDS011;10974;51.034;3.744;2022-09-03T00:39:15;7.00;;;4.13;;
21624;SDS011;10974;51.034;3.744;2022-09-03T00:50:30;5.00;;;4.50;;
21624;SDS011;10974;51.034;3.744;2022-09-03T00:53:20;8.30;;;4.47;;
21624;SDS011;10974;51.034;3.744;2022-09-03T00:56:07;5.83;;;4.87;;
21624;SDS011;10974;51.034;3.744;2022-09-03T00:58:54;10.43;;;9.37;;
21624;SDS011;10974;51.034;3.744;2022-09-03T01:01:47;10.40;;;9.40;;
21624;SDS011;10974;51.034;3.744;2022-09-03T01:12:51;14.90;;;9.83;;
21624;SDS011;10974;51.034;3.744;2022-09-03T01:18:31;12.57;;;9.73;;
21624;SDS011;10974;51.034;3.744;2022-09-03T01:27:08;10.83;;;9.50;;
21624;SDS011;10974;51.034;3.744;2022-09-03T01:30:11;10.03;;;8.97;;
21624;SDS011;10974;51.034;3.744;2022-09-03T01:38:22;9.40;;;8.40;;
21624;SDS011;10974;51.034;3.744;2022-09-03T01:50:15;9.80;;;8.80;;
21624;SDS011;10974;51.034;3.744;2022-09-03T01:55:31;10.50;;;9.33;;
21624;SDS011;10974;51.034;3.744;2022-09-03T02:00:40;11.97;;;8.50;;
21624;SDS011;10974;51.034;3.744;2022-09-03T02:03:10;10.57;;;9.47;;
21624;SDS011;10974;51.034;3.744;2022-09-03T02:05:38;9.97;;;8.97;;
21624;SDS011;10974;51.034;3.744;2022-09-03T02:08:08;9.50;;;8.50;;
21624;SDS011;10974;51.034;3.744;2022-09-03T02:10:44;10.10;;;8.40;;
21624;SDS011;10974;51.034;3.744;2022-09-03T02:13:20;10.40;;;9.43;;
21624;SDS011;10974;51.034;3.744;2022-09-03T02:15:51;10.23;;;8.33;;
21624;SDS011;10974;51.034;3.744;2022-09-03T02:18:21;8.70;;;7.80;;
21624;SDS011;10974;51.034;3.744;2022-09-03T02:20:53;9.40;;;8.50;;
21624;SDS011;10974;51.034;3.744;2022-09-03T02:23:20;10.63;;;8.70;;
21624;SDS011;10974;51.034;3.744;2022-09-03T02:25:49;10.50;;;9.37;;
21624;SDS011;10974;51.034;3.744;2022-09-03T02:28:19;10.60;;;8.40;;
21624;SDS011;10974;51.034;3.744;2022-09-03T02:30:46;10.50;;;9.13;;
21624;SDS011;10974;51.034;3.744;2022-09-03T02:33:12;10.43;;;9.37;;
21624;SDS011;10974;51.034;3.744;2022-09-03T02:35:39;12.20;;;8.90;;
21624;SDS011;10974;51.034;3.744;2022-09-03T02:38:09;9.80;;;8.90;;
21624;SDS011;10974;51.034;3.744;2022-09-03T02:40:41;11.60;;;8.90;;
21624;SDS011;10974;51.034;3.744;2022-09-03T02:43:07;12.23;;;8.90;;
21624;SDS011;10974;51.034;3.744;2022-09-03T02:45:40;10.60;;;9.50;;
21624;SDS011;10974;51.034;3.744;2022-09-03T02:48:11;9.23;;;7.90;;
21624;SDS011;10974;51.034;3.744;2022-09-03T02:50:40;12.33;;;9.40;;
21624;SDS011;10974;51.034;3.744;2022-09-03T02:53:06;11.90;;;8.67;;
21624;SDS011;10974;51.034;3.744;2022-09-03T02:55:32;9.10;;;8.30;;
21624;SDS011;10974;51.034;3.744;2022-09-03T02:57:58;11.07;;;9.00;;
21624;SDS011;10974;51.034;3.744;2022-09-03T03:00:24;11.40;;;9.03;;
21624;SDS011;10974;51.034;3.744;2022-09-03T03:02:50;9.83;;;8.77;;
21624;SDS011;10974;51.034;3.744;2022-09-03T03:05:17;10.13;;;8.20;;
21624;SDS011;10974;51.034;3.744;2022-09-03T03:07:50;10.37;;;8.70;;
21624;SDS011;10974;51.034;3.744;2022-09-03T03:10:16;9.73;;;8.70;;
21624;SDS011;10974;51.034;3.744;2022-09-03T03:12:41;9.93;;;8.80;;
21624;SDS011;10974;51.034;3.744;2022-09-03T03:15:07;9.43;;;8.50;;
21624;SDS011;10974;51.034;3.744;2022-09-03T03:17:33;9.57;;;8.53;;
21624;SDS011;10974;51.034;3.744;2022-09-03T03:19:58;10.77;;;8.83;;
21624;SDS011;10974;51.034;3.744;2022-09-03T03:22:24;13.50;;;9.10;;
21624;SDS011;10974;51.034;3.744;2022-09-03T03:24:50;10.67;;;8.77;;
21624;SDS011;10974;51.034;3.744;2022-09-03T03:27:16;10.37;;;8.70;;
21624;SDS011;10974;51.034;3.744;2022-09-03T03:29:42;10.80;;;9.10;;
21624;SDS011;10974;51.034;3.744;2022-09-03T03:32:08;9.73;;;8.20;;
21624;SDS011;10974;51.034;3.744;2022-09-03T03:34:34;10.50;;;8.13;;
21624;SDS011;10974;51.034;3.744;2022-09-03T03:37:00;12.00;;;8.47;;
21624;SDS011;10974;51.034;3.744;2022-09-03T03:39:25;8.50;;;7.70;;
21624;SDS011;10974;51.034;3.744;2022-09-03T03:41:51;10.03;;;8.90;;
21624;SDS011;10974;51.034;3.744;2022-09-03T03:44:16;8.80;;;8.00;;
21624;SDS011;10974;51.034;3.744;2022-09-03T03:46:44;8.53;;;7.73;;
21624;SDS011;10974;51.034;3.744;2022-09-03T03:49:10;10.33;;;8.50;;
21624;SDS011;10974;51.034;3.744;2022-09-03T03:51:36;10.13;;;8.10;;
21624;SDS011;10974;51.034;3.744;2022-09-03T03:54:03;9.03;;;8.13;;
21624;SDS011;10974;51.034;3.744;2022-09-03T03:56:29;10.20;;;8.10;;
21624;SDS011;10974;51.034;3.744;2022-09-03T03:58:55;9.57;;;8.37;;
21624;SDS011;10974;51.034;3.744;2022-09-03T04:01:23;9.57;;;8.57;;
21624;SDS011;10974;51.034;3.744;2022-09-03T04:03:50;11.33;;;8.50;;
21624;SDS011;10974;51.034;3.744;2022-09-03T04:06:18;9.60;;;8.70;;
21624;SDS011;10974;51.034;3.744;2022-09-03T04:08:45;8.97;;;8.00;;
21624;SDS011;10974;51.034;3.744;2022-09-03T04:11:13;8.63;;;7.80;;
21624;SDS011;10974;51.034;3.744;2022-09-03T04:13:40;8.90;;;7.80;;
21624;SDS011;10974;51.034;3.744;2022-09-03T04:16:08;12.00;;;8.00;;
21624;SDS011;10974;51.034;3.744;2022-09-03T04:18:39;9.37;;;8.43;;
21624;SDS011;10974;51.034;3.744;2022-09-03T04:21:07;9.37;;;8.00;;
21624;SDS011;10974;51.034;3.744;2022-09-03T04:23:38;9.07;;;8.03;;
21624;SDS011;10974;51.034;3.744;2022-09-03T04:26:06;11.37;;;8.60;;
21624;SDS011;10974;51.034;3.744;2022-09-03T04:28:32;9.50;;;8.57;;
21624;SDS011;10974;51.034;3.744;2022-09-03T04:31:05;10.30;;;8.73;;
21624;SDS011;10974;51.034;3.744;2022-09-03T04:33:33;10.83;;;9.63;;
21624;SDS011;10974;51.034;3.744;2022-09-03T04:36:06;10.23;;;9.23;;
21624;SDS011;10974;51.034;3.744;2022-09-03T04:38:37;10.37;;;9.27;;
21624;SDS011;10974;51.034;3.744;2022-09-03T04:41:05;9.93;;;8.93;;
21624;SDS011;10974;51.034;3.744;2022-09-03T04:43:31;12.00;;;9.23;;
21624;SDS011;10974;51.034;3.744;2022-09-03T04:45:58;11.13;;;9.73;;
21624;SDS011;10974;51.034;3.744;2022-09-03T04:48:26;11.67;;;10.47;;
21624;SDS011;10974;51.034;3.744;2022-09-03T04:50:52;10.73;;;9.67;;
21624;SDS011;10974;51.034;3.744;2022-09-03T04:53:19;12.27;;;9.80;;
21624;SDS011;10974;51.034;3.744;2022-09-03T04:55:45;12.30;;;9.83;;
21624;SDS011;10974;51.034;3.744;2022-09-03T04:58:10;11.23;;;9.70;;
21624;SDS011;10974;51.034;3.744;2022-09-03T05:00:36;12.37;;;9.73;;
21624;SDS011;10974;51.034;3.744;2022-09-03T05:03:03;11.27;;;10.13;;
21624;SDS011;10974;51.034;3.744;2022-09-03T05:05:31;11.00;;;10.00;;
21624;SDS011;10974;51.034;3.744;2022-09-03T05:08:00;13.77;;;10.70;;
21624;SDS011;10974;51.034;3.744;2022-09-03T05:10:26;11.00;;;9.83;;
21624;SDS011;10974;51.034;3.744;2022-09-03T05:13:02;12.77;;;10.40;;
21624;SDS011;10974;51.034;3.744;2022-09-03T05:15:29;13.37;;;10.30;;
21624;SDS011;10974;51.034;3.744;2022-09-03T05:18:00;14.27;;;10.87;;
21624;SDS011;10974;51.034;3.744;2022-09-03T05:20:27;12.63;;;10.20;;
21624;SDS011;10974;51.034;3.744;2022-09-03T05:22:54;11.70;;;10.37;;
21624;SDS011;10974;51.034;3.744;2022-09-03T05:25:21;12.00;;;10.27;;
21624;SDS011;10974;51.034;3.744;2022-09-03T05:27:47;11.57;;;10.43;;
21624;SDS011;10974;51.034;3.744;2022-09-03T05:30:13;15.77;;;10.87;;
21624;SDS011;10974;51.034;3.744;2022-09-03T05:32:40;11.10;;;10.00;;
21624;SDS011;10974;51.034;3.744;2022-09-03T05:35:06;12.00;;;10.80;;
21624;SDS011;10974;51.034;3.744;2022-09-03T05:37:33;13.50;;;10.77;;
21624;SDS011;10974;51.034;3.744;2022-09-03T05:39:58;9.33;;;8.20;;
21624;SDS011;10974;51.034;3.744;2022-09-03T05:42:24;6.87;;;6.17;;
21624;SDS011;10974;51.034;3.744;2022-09-03T05:44:51;6.70;;;5.93;;
21624;SDS011;10974;51.034;3.744;2022-09-03T05:47:16;7.40;;;6.27;;
21624;SDS011;10974;51.034;3.744;2022-09-03T05:49:42;12.60;;;5.67;;
21624;SDS011;10974;51.034;3.744;2022-09-03T05:52:08;7.17;;;5.80;;
21624;SDS011;10974;51.034;3.744;2022-09-03T05:54:34;7.33;;;5.90;;
21624;SDS011;10974;51.034;3.744;2022-09-03T05:57:00;9.70;;;6.90;;
21624;SDS011;10974;51.034;3.744;2022-09-03T05:59:25;7.20;;;5.93;;
21624;SDS011;10974;51.034;3.744;2022-09-03T06:01:52;7.50;;;5.30;;
21624;SDS011;10974;51.034;3.744;2022-09-03T06:04:18;6.37;;;5.50;;
21624;SDS011;10974;51.034;3.744;2022-09-03T06:06:44;11.67;;;6.03;;
21624;SDS011;10974;51.034;3.744;2022-09-03T06:09:17;6.70;;;5.60;;
21624;SDS011;10974;51.034;3.744;2022-09-03T06:11:44;7.70;;;6.40;;
21624;SDS011;10974;51.034;3.744;2022-09-03T06:14:11;7.03;;;6.00;;
21624;SDS011;10974;51.034;3.744;2022-09-03T06:16:42;7.27;;;5.97;;
21624;SDS011;10974;51.034;3.744;2022-09-03T06:19:10;8.87;;;6.10;;
21624;SDS011;10974;51.034;3.744;2022-09-03T06:21:38;8.90;;;6.20;;
21624;SDS011;10974;51.034;3.744;2022-09-03T06:24:07;7.00;;;6.03;;
21624;SDS011;10974;51.034;3.744;2022-09-03T06:26:36;9.10;;;6.70;;
21624;SDS011;10974;51.034;3.744;2022-09-03T06:29:03;9.70;;;5.63;;
21624;SDS011;10974;51.034;3.744;2022-09-03T06:31:29;8.70;;;6.47;;
21624;SDS011;10974;51.034;3.744;2022-09-03T06:33:55;7.33;;;6.17;;
21624;SDS011;10974;51.034;3.744;2022-09-03T06:36:21;8.90;;;6.20;;
21624;SDS011;10974;51.034;3.744;2022-09-03T06:38:50;11.20;;;6.70;;
21624;SDS011;10974;51.034;3.744;2022-09-03T06:41:20;8.37;;;6.40;;
21624;SDS011;10974;51.034;3.744;2022-09-03T06:43:51;9.17;;;6.50;;
21624;SDS011;10974;51.034;3.744;2022-09-03T06:46:25;9.47;;;6.37;;
21624;SDS011;10974;51.034;3.744;2022-09-03T06:48:51;9.37;;;7.57;;
21624;SDS011;10974;51.034;3.744;2022-09-03T06:51:19;10.03;;;7.30;;
21624;SDS011;10974;51.034;3.744;2022-09-03T06:53:48;9.70;;;7.03;;
21624;SDS011;10974;51.034;3.744;2022-09-03T06:56:16;11.20;;;7.57;;
21624;SDS011;10974;51.034;3.744;2022-09-03T06:58:50;9.17;;;6.90;;
21624;SDS011;10974;51.034;3.744;2022-09-03T07:01:18;9.57;;;6.93;;
21624;SDS011;10974;51.034;3.744;2022-09-03T07:03:46;12.63;;;6.87;;
21624;SDS011;10974;51.034;3.744;2022-09-03T07:06:17;7.60;;;6.40;;
21624;SDS011;10974;51.034;3.744;2022-09-03T07:08:44;8.93;;;7.13;;
21624;SDS011;10974;51.034;3.744;2022-09-03T07:11:11;9.10;;;7.00;;
21624;SDS011;10974;51.034;3.744;2022-09-03T07:13:39;9.43;;;7.10;;
21624;SDS011;10974;51.034;3.744;2022-09-03T07:16:09;17.30;;;9.80;;
21624;SDS011;10974;51.034;3.744;2022-09-03T07:18:38;9.53;;;7.63;;
21624;SDS011;10974;51.034;3.744;2022-09-03T07:21:05;9.93;;;7.50;;
21624;SDS011;10974;51.034;3.744;2022-09-03T07:23:33;13.60;;;7.47;;
21624;SDS011;10974;51.034;3.744;2022-09-03T07:26:03;10.20;;;6.77;;
21624;SDS011;10974;51.034;3.744;2022-09-03T07:28:30;11.63;;;7.40;;
21624;SDS011;10974;51.034;3.744;2022-09-03T07:31:03;12.37;;;7.50;;
21624;SDS011;10974;51.034;3.744;2022-09-03T07:33:30;8.77;;;6.07;;
21624;SDS011;10974;51.034;3.744;2022-09-03T07:36:01;11.20;;;6.77;;
21624;SDS011;10974;51.034;3.744;2022-09-03T07:38:32;11.60;;;7.07;;
21624;SDS011;10974;51.034;3.744;2022-09-03T07:40:59;10.93;;;6.10;;
21624;SDS011;10974;51.034;3.744;2022-09-03T07:43:29;10.20;;;5.00;;
21624;SDS011;10974;51.034;3.744;2022-09-03T07:45:58;7.83;;;5.30;;
21624;SDS011;10974;51.034;3.744;2022-09-03T07:48:25;11.90;;;5.27;;
21624;SDS011;10974;51.034;3.744;2022-09-03T07:50:51;10.33;;;5.90;;
21624;SDS011;10974;51.034;3.744;2022-09-03T07:53:17;8.00;;;5.70;;
21624;SDS011;10974;51.034;3.744;2022-09-03T07:55:45;8.10;;;5.70;;
21624;SDS011;10974;51.034;3.744;2022-09-03T07:58:12;9.07;;;6.47;;
21624;SDS011;10974;51.034;3.744;2022-09-03T08:00:38;8.93;;;6.20;;
21624;SDS011;10974;51.034;3.744;2022-09-03T08:03:05;7.33;;;6.30;;
21624;SDS011;10974;51.034;3.744;2022-09-03T08:05:33;7.00;;;5.60;;
21624;SDS011;10974;51.034;3.744;2022-09-03T08:08:01;9.07;;;6.57;;
21624;SDS011;10974;51.034;3.744;2022-09-03T08:10:33;7.00;;;6.10;;
21624;SDS011;10974;51.034;3.744;2022-09-03T08:12:59;9.00;;;4.93;;
21624;SDS011;10974;51.034;3.744;2022-09-03T08:15:29;10.57;;;5.80;;
21624;SDS011;10974;51.034;3.744;2022-09-03T08:17:55;7.40;;;5.00;;
21624;SDS011;10974;51.034;3.744;2022-09-03T08:20:21;7.67;;;5.87;;
21624;SDS011;10974;51.034;3.744;2022-09-03T08:22:47;6.53;;;5.50;;
21624;SDS011;10974;51.034;3.744;2022-09-03T08:25:13;6.13;;;5.50;;
21624;SDS011;10974;51.034;3.744;2022-09-03T08:27:38;6.50;;;5.43;;
21624;SDS011;10974;51.034;3.744;2022-09-03T08:30:04;10.23;;;5.17;;
21624;SDS011;10974;51.034;3.744;2022-09-03T08:32:33;6.80;;;5.57;;
21624;SDS011;10974;51.034;3.744;2022-09-03T08:34:59;8.37;;;6.30;;
21624;SDS011;10974;51.034;3.744;2022-09-03T08:37:25;8.40;;;6.53;;
21624;SDS011;10974;51.034;3.744;2022-09-03T08:39:52;6.60;;;5.27;;
21624;SDS011;10974;51.034;3.744;2022-09-03T08:44:57;5.20;;;4.70;;
21624;SDS011;10974;51.034;3.744;2022-09-03T08:47:34;8.10;;;5.20;;
21624;SDS011;10974;51.034;3.744;2022-09-03T08:55:51;8.87;;;4.60;;
21624;SDS011;10974;51.034;3.744;2022-09-03T08:58:35;6.83;;;4.80;;
21624;SDS011;10974;51.034;3.744;2022-09-03T09:03:42;6.80;;;4.60;;
21624;SDS011;10974;51.034;3.744;2022-09-03T09:09:02;5.27;;;4.40;;
21624;SDS011;10974;51.034;3.744;2022-09-03T09:20:01;9.60;;;5.13;;
21624;SDS011;10974;51.034;3.744;2022-09-03T09:22:37;6.00;;;4.50;;
21624;SDS011;10974;51.034;3.744;2022-09-03T09:25:10;8.13;;;4.90;;
21624;SDS011;10974;51.034;3.744;2022-09-03T09:28:45;6.50;;;4.70;;
21624;SDS011;10974;51.034;3.744;2022-09-03T09:30:47;6.93;;;4.83;;
21624;SDS011;10974;51.034;3.744;2022-09-03T09:33:16;9.17;;;5.20;;
21624;SDS011;10974;51.034;3.744;2022-09-03T09:35:42;4.77;;;4.37;;
21624;SDS011;10974;51.034;3.744;2022-09-03T09:38:09;49.03;;;6.40;;
21624;SDS011;10974;51.034;3.744;2022-09-03T09:40:42;49.03;;;7.73;;
21624;SDS011;10974;51.034;3.744;2022-09-03T09:43:13;9.50;;;5.23;;
21624;SDS011;10974;51.034;3.744;2022-09-03T09:45:47;5.97;;;4.27;;
21624;SDS011;10974;51.034;3.744;2022-09-03T09:51:11;4.33;;;3.83;;
21624;SDS011;10974;51.034;3.744;2022-09-03T09:53:43;7.60;;;4.60;;
21624;SDS011;10974;51.034;3.744;2022-09-03T09:56:19;8.23;;;4.30;;
21624;SDS011;10974;51.034;3.744;2022-09-03T09:58:49;8.97;;;7.33;;
21624;SDS011;10974;51.034;3.744;2022-09-03T10:01:26;11.40;;;7.63;;
21624;SDS011;10974;51.034;3.744;2022-09-03T10:04:07;9.97;;;7.77;;
21624;SDS011;10974;51.034;3.744;2022-09-03T10:06:37;11.00;;;6.87;;
21624;SDS011;10974;51.034;3.744;2022-09-03T10:09:22;7.30;;;6.60;;
21624;SDS011;10974;51.034;3.744;2022-09-03T10:14:49;8.10;;;6.60;;
21624;SDS011;10974;51.034;3.744;2022-09-03T10:17:34;7.50;;;6.80;;
21624;SDS011;10974;51.034;3.744;2022-09-03T10:20:21;8.73;;;7.10;;
21624;SDS011;10974;51.034;3.744;2022-09-03T10:28:17;7.50;;;6.70;;
21624;SDS011;10974;51.034;3.744;2022-09-03T10:33:43;9.13;;;6.80;;
21624;SDS011;10974;51.034;3.744;2022-09-03T10:36:24;8.00;;;4.93;;
21624;SDS011;10974;51.034;3.744;2022-09-03T10:39:03;6.30;;;4.70;;
21624;SDS011;10974;51.034;3.744;2022-09-03T10:44:38;4.87;;;2.90;;
21624;SDS011;10974;51.034;3.744;2022-09-03T10:50:14;4.60;;;2.90;;
21624;SDS011;10974;51.034;3.744;2022-09-03T10:58:15;2.70;;;2.13;;
21624;SDS011;10974;51.034;3.744;2022-09-03T11:01:08;2.27;;;2.00;;
21624;SDS011;10974;51.034;3.744;2022-09-03T11:06:47;3.40;;;2.10;;
21624;SDS011;10974;51.034;3.744;2022-09-03T11:09:34;5.57;;;2.70;;
21624;SDS011;10974;51.034;3.744;2022-09-03T11:12:34;3.70;;;2.10;;
21624;SDS011;10974;51.034;3.744;2022-09-03T11:15:08;7.00;;;2.13;;
21624;SDS011;10974;51.034;3.744;2022-09-03T11:17:49;3.20;;;2.20;;
21624;SDS011;10974;51.034;3.744;2022-09-03T11:20:24;4.30;;;2.10;;
21624;SDS011;10974;51.034;3.744;2022-09-03T11:22:52;2.60;;;2.40;;
21624;SDS011;10974;51.034;3.744;2022-09-03T11:25:28;3.10;;;2.13;;
21624;SDS011;10974;51.034;3.744;2022-09-03T11:31:21;4.83;;;2.10;;
21624;SDS011;10974;51.034;3.744;2022-09-03T11:34:04;2.67;;;2.47;;
21624;SDS011;10974;51.034;3.744;2022-09-03T11:36:30;2.37;;;2.17;;
21624;SDS011;10974;51.034;3.744;2022-09-03T11:41:59;2.10;;;1.90;;
21624;SDS011;10974;51.034;3.744;2022-09-03T11:44:40;2.90;;;2.60;;
21624;SDS011;10974;51.034;3.744;2022-09-03T11:47:23;2.30;;;2.20;;
21624;SDS011;10974;51.034;3.744;2022-09-03T11:52:45;2.80;;;2.07;;
21624;SDS011;10974;51.034;3.744;2022-09-03T11:55:26;4.50;;;2.90;;
21624;SDS011;10974;51.034;3.744;2022-09-03T11:58:16;2.53;;;2.33;;
21624;SDS011;10974;51.034;3.744;2022-09-03T12:00:48;2.60;;;2.30;;
21624;SDS011;10974;51.034;3.744;2022-09-03T12:03:20;2.87;;;2.37;;
21624;SDS011;10974;51.034;3.744;2022-09-03T12:14:25;6.80;;;2.30;;
21624;SDS011;10974;51.034;3.744;2022-09-03T12:20:11;2.10;;;1.90;;
21624;SDS011;10974;51.034;3.744;2022-09-03T12:22:39;1.90;;;1.70;;
21624;SDS011;10974;51.034;3.744;2022-09-03T12:25:11;2.40;;;2.20;;
21624;SDS011;10974;51.034;3.744;2022-09-03T12:27:39;2.50;;;2.30;;
21624;SDS011;10974;51.034;3.744;2022-09-03T12:30:18;2.53;;;2.10;;
21624;SDS011;10974;51.034;3.744;2022-09-03T12:32:47;2.80;;;2.60;;
21624;SDS011;10974;51.034;3.744;2022-09-03T12:35:16;2.40;;;2.20;;
21624;SDS011;10974;51.034;3.744;2022-09-03T12:37:44;2.70;;;2.50;;
21624;SDS011;10974;51.034;3.744;2022-09-03T12:42:50;5.80;;;2.30;;
21624;SDS011;10974;51.034;3.744;2022-09-03T12:45:21;2.60;;;2.40;;
21624;SDS011;10974;51.034;3.744;2022-09-03T12:47:47;2.70;;;2.50;;
21624;SDS011;10974;51.034;3.744;2022-09-03T12:50:14;2.53;;;2.00;;
21624;SDS011;10974;51.034;3.744;2022-09-03T12:52:46;5.17;;;2.20;;
21624;SDS011;10974;51.034;3.744;2022-09-03T13:00:23;3.17;;;2.87;;
21624;SDS011;10974;51.034;3.744;2022-09-03T13:05:39;4.27;;;2.83;;
21624;SDS011;10974;51.034;3.744;2022-09-03T13:08:07;3.30;;;2.23;;
21624;SDS011;10974;51.034;3.744;2022-09-03T13:10:38;2.43;;;2.23;;
21624;SDS011;10974;51.034;3.744;2022-09-03T13:13:26;2.80;;;2.60;;
21624;SDS011;10974;51.034;3.744;2022-09-03T13:18:40;2.30;;;2.10;;
21624;SDS011;10974;51.034;3.744;2022-09-03T13:31:07;2.00;;;1.67;;
21624;SDS011;10974;51.034;3.744;2022-09-03T13:33:06;2.10;;;1.90;;
21624;SDS011;10974;51.034;3.744;2022-09-03T13:35:46;3.43;;;2.10;;
21624;SDS011;10974;51.034;3.744;2022-09-03T13:43:52;2.43;;;2.23;;
21624;SDS011;10974;51.034;3.744;2022-09-03T13:52:54;2.60;;;2.40;;
21624;SDS011;10974;51.034;3.744;2022-09-03T13:55:48;2.37;;;1.77;;
21624;SDS011;10974;51.034;3.744;2022-09-03T13:58:30;2.30;;;2.00;;
21624;SDS011;10974;51.034;3.744;2022-09-03T14:17:02;2.37;;;2.17;;
21624;SDS011;10974;51.034;3.744;2022-09-03T14:19:47;2.47;;;2.27;;
21624;SDS011;10974;51.034;3.744;2022-09-03T14:22:23;2.07;;;1.97;;
21624;SDS011;10974;51.034;3.744;2022-09-03T14:25:01;1.80;;;1.70;;
21624;SDS011;10974;51.034;3.744;2022-09-03T14:27:38;2.20;;;2.00;;
21624;SDS011;10974;51.034;3.744;2022-09-03T14:30:16;2.60;;;2.33;;
21624;SDS011;10974;51.034;3.744;2022-09-03T14:35:43;3.00;;;2.10;;
21624;SDS011;10974;51.034;3.744;2022-09-03T14:38:30;1.67;;;1.57;;
21624;SDS011;10974;51.034;3.744;2022-09-03T14:44:05;3.23;;;2.10;;
21624;SDS011;10974;51.034;3.744;2022-09-03T14:52:38;2.20;;;2.00;;
21624;SDS011;10974;51.034;3.744;2022-09-03T14:55:31;2.23;;;2.03;;
21624;SDS011;10974;51.034;3.744;2022-09-03T15:01:37;2.00;;;1.90;;
21624;SDS011;10974;51.034;3.744;2022-09-03T15:17:06;1.87;;;1.77;;
21624;SDS011;10974;51.034;3.744;2022-09-03T15:19:59;2.13;;;1.70;;
21624;SDS011;10974;51.034;3.744;2022-09-03T15:27:35;4.80;;;1.90;;
21624;SDS011;10974;51.034;3.744;2022-09-03T15:32:45;1.87;;;1.73;;
21624;SDS011;10974;51.034;3.744;2022-09-03T15:38:02;48.07;;;6.33;;
21624;SDS011;10974;51.034;3.744;2022-09-03T15:40:40;1.60;;;1.50;;
21624;SDS011;10974;51.034;3.744;2022-09-03T15:43:16;1.53;;;1.43;;
21624;SDS011;10974;51.034;3.744;2022-09-03T15:45:58;1.37;;;1.27;;
21624;SDS011;10974;51.034;3.744;2022-09-03T15:51:27;1.80;;;1.30;;
21624;SDS011;10974;51.034;3.744;2022-09-03T15:54:06;2.10;;;1.90;;
21624;SDS011;10974;51.034;3.744;2022-09-03T15:56:41;2.80;;;1.47;;
21624;SDS011;10974;51.034;3.744;2022-09-03T16:04:49;4.57;;;1.60;;
21624;SDS011;10974;51.034;3.744;2022-09-03T16:18:26;3.30;;;2.13;;
21624;SDS011;10974;51.034;3.744;2022-09-03T16:27:06;3.87;;;2.00;;
21624;SDS011;10974;51.034;3.744;2022-09-03T16:29:39;3.20;;;1.80;;
21624;SDS011;10974;51.034;3.744;2022-09-03T16:32:13;1.40;;;1.30;;
21624;SDS011;10974;51.034;3.744;2022-09-03T16:35:27;2.10;;;1.80;;
21624;SDS011;10974;51.034;3.744;2022-09-03T16:46:57;2.20;;;2.00;;
21624;SDS011;10974;51.034;3.744;2022-09-03T16:49:45;2.50;;;2.30;;
21624;SDS011;10974;51.034;3.744;2022-09-03T17:03:43;1.97;;;1.77;;
21624;SDS011;10974;51.034;3.744;2022-09-03T17:06:14;3.10;;;2.10;;
21624;SDS011;10974;51.034;3.744;2022-09-03T17:20:45;2.63;;;1.97;;
21624;SDS011;10974;51.034;3.744;2022-09-03T17:23:30;2.17;;;1.90;;
21624;SDS011;10974;51.034;3.744;2022-09-03T17:26:16;3.50;;;1.40;;
21624;SDS011;10974;51.034;3.744;2022-09-03T17:43:17;1.50;;;1.40;;
21624;SDS011;10974;51.034;3.744;2022-09-03T17:51:32;2.23;;;1.60;;
21624;SDS011;10974;51.034;3.744;2022-09-03T17:53:52;2.27;;;1.60;;
21624;SDS011;10974;51.034;3.744;2022-09-03T18:02:15;1.60;;;1.50;;
21624;SDS011;10974;51.034;3.744;2022-09-03T18:05:06;4.97;;;2.03;;
21624;SDS011;10974;51.034;3.744;2022-09-03T18:07:57;1.73;;;1.63;;
21624;SDS011;10974;51.034;3.744;2022-09-03T18:10:30;2.00;;;1.80;;
21624;SDS011;10974;51.034;3.744;2022-09-03T18:13:02;2.00;;;1.70;;
21624;SDS011;10974;51.034;3.744;2022-09-03T18:15:38;1.87;;;1.63;;
21624;SDS011;10974;51.034;3.744;2022-09-03T18:18:28;1.70;;;1.60;;
21624;SDS011;10974;51.034;3.744;2022-09-03T18:20:56;1.63;;;1.53;;
21624;SDS011;10974;51.034;3.744;2022-09-03T18:23:57;1.90;;;1.70;;
21624;SDS011;10974;51.034;3.744;2022-09-03T18:26:54;2.63;;;2.20;;
21624;SDS011;10974;51.034;3.744;2022-09-03T18:32:32;1.50;;;1.40;;
21624;SDS011;10974;51.034;3.744;2022-09-03T18:35:16;2.10;;;1.80;;
21624;SDS011;10974;51.034;3.744;2022-09-03T18:38:01;1.93;;;1.67;;
21624;SDS011;10974;51.034;3.744;2022-09-03T18:40:55;1.77;;;1.67;;
21624;SDS011;10974;51.034;3.744;2022-09-03T18:44:03;1.80;;;1.70;;
21624;SDS011;10974;51.034;3.744;2022-09-03T18:47:06;2.40;;;2.10;;
21624;SDS011;10974;51.034;3.744;2022-09-03T19:02:17;2.33;;;2.13;;
21624;SDS011;10974;51.034;3.744;2022-09-03T19:05:22;2.00;;;1.80;;
21624;SDS011;10974;51.034;3.744;2022-09-03T19:08:23;2.10;;;1.80;;
21624;SDS011;10974;51.034;3.744;2022-09-03T19:11:28;2.07;;;1.87;;
21624;SDS011;10974;51.034;3.744;2022-09-03T19:20:37;2.40;;;2.10;;
21624;SDS011;10974;51.034;3.744;2022-09-03T19:23:37;2.37;;;2.10;;
21624;SDS011;10974;51.034;3.744;2022-09-03T19:32:52;3.13;;;2.83;;
21624;SDS011;10974;51.034;3.744;2022-09-03T19:35:57;2.60;;;2.33;;
21624;SDS011;10974;51.034;3.744;2022-09-03T19:44:37;3.67;;;2.30;;
21624;SDS011;10974;51.034;3.744;2022-09-03T19:50:28;4.40;;;2.77;;
21624;SDS011;10974;51.034;3.744;2022-09-03T19:53:16;2.87;;;2.23;;
21624;SDS011;10974;51.034;3.744;2022-09-03T19:56:09;2.20;;;2.10;;
21624;SDS011;10974;51.034;3.744;2022-09-03T19:59:02;2.50;;;2.30;;
21624;SDS011;10974;51.034;3.744;2022-09-03T20:01:54;3.27;;;2.50;;
21624;SDS011;10974;51.034;3.744;2022-09-03T20:05:13;2.57;;;2.37;;
21624;SDS011;10974;51.034;3.744;2022-09-03T20:07:51;3.50;;;2.40;;
21624;SDS011;10974;51.034;3.744;2022-09-03T20:10:38;2.37;;;2.17;;
21624;SDS011;10974;51.034;3.744;2022-09-03T20:13:08;2.70;;;2.50;;
21624;SDS011;10974;51.034;3.744;2022-09-03T20:15:51;3.17;;;2.90;;
21624;SDS011;10974;51.034;3.744;2022-09-03T20:34:46;4.90;;;2.77;;
21624;SDS011;10974;51.034;3.744;2022-09-03T20:37:38;4.37;;;2.60;;
21624;SDS011;10974;51.034;3.744;2022-09-03T20:48:10;3.13;;;2.40;;
21624;SDS011;10974;51.034;3.744;2022-09-03T21:07:48;4.50;;;2.80;;
21624;SDS011;10974;51.034;3.744;2022-09-03T21:10:57;2.90;;;2.70;;
21624;SDS011;10974;51.034;3.744;2022-09-03T21:21:40;5.93;;;3.37;;
21624;SDS011;10974;51.034;3.744;2022-09-03T21:24:26;3.63;;;3.17;;
21624;SDS011;10974;51.034;3.744;2022-09-03T21:27:02;6.80;;;3.40;;
21624;SDS011;10974;51.034;3.744;2022-09-03T21:29:38;5.87;;;3.47;;
21624;SDS011;10974;51.034;3.744;2022-09-03T21:32:09;3.90;;;3.50;;
21624;SDS011;10974;51.034;3.744;2022-09-03T21:37:23;5.33;;;3.90;;
21624;SDS011;10974;51.034;3.744;2022-09-03T21:39:55;4.33;;;3.73;;
21624;SDS011;10974;51.034;3.744;2022-09-03T21:47:52;7.93;;;5.30;;
21624;SDS011;10974;51.034;3.744;2022-09-03T21:50:28;6.90;;;5.10;;
21624;SDS011;10974;51.034;3.744;2022-09-03T21:53:24;5.83;;;5.00;;
21624;SDS011;10974;51.034;3.744;2022-09-03T21:55:58;7.83;;;5.67;;
21624;SDS011;10974;51.034;3.744;2022-09-03T22:04:14;7.40;;;6.27;;